Time;durP1;ratioP1;P1;durP2;ratioP2;P2;SDS_P1;SDS_P2;PMS_P1;PMS_P2;Temp;Humidity;BMP_temperature;BMP_pressure;BME280_temperature;BME280_humidity;BME280_pressure;Samples;Min_cycle;Max_cycle;Signal;HPM_P1;HPM_P2
2022/08/06 00:01:55;;;;;;;12.23;4.15;;;;;;;24.75;54.08;94504.97;5089429;28;20590;-80
2022/08/06 00:04:23;;;;;;;5.55;3.95;;;;;;;24.74;54.18;94507.81;5089530;28;20209;-82
2022/08/06 00:06:50;;;;;;;6.10;4.07;;;;;;;24.71;54.18;94505.66;5089495;28;20190;-82
2022/08/06 00:09:17;;;;;;;5.40;3.85;;;;;;;24.67;54.31;94507.94;5089448;28;20530;-81
2022/08/06 00:11:44;;;;;;;4.70;4.20;;;;;;;24.65;54.38;94509.97;5090027;28;20572;-81
2022/08/06 00:14:11;;;;;;;5.55;4.10;;;;;;;24.59;54.42;94507.50;5089420;28;20696;-82
2022/08/06 00:16:38;;;;;;;6.82;4.10;;;;;;;24.60;54.44;94520.34;5089694;28;20190;-82
2022/08/06 00:19:06;;;;;;;6.03;4.38;;;;;;;24.52;54.69;94510.22;5089405;28;20190;-81
2022/08/06 00:21:33;;;;;;;4.25;3.85;;;;;;;24.53;54.50;94517.84;5089630;28;20600;-82
2022/08/06 00:24:00;;;;;;;4.53;4.13;;;;;;;24.33;55.35;94488.63;5089533;28;20225;-83
2022/08/06 00:26:28;;;;;;;5.40;3.95;;;;;;;24.38;55.13;94508.88;5089955;28;20201;-82
2022/08/06 00:28:55;;;;;;;4.65;4.25;;;;;;;24.43;55.30;94520.22;5089765;28;20220;-84
2022/08/06 00:31:22;;;;;;;4.63;4.00;;;;;;;24.33;55.61;94513.97;5089862;28;20669;-83
2022/08/06 00:33:49;;;;;;;4.78;4.10;;;;;;;24.40;55.42;94522.53;5089484;28;20194;-80
2022/08/06 00:36:17;;;;;;;5.88;5.38;;;;;;;24.36;55.38;94526.59;5089933;28;20229;-82
2022/08/06 00:38:44;;;;;;;7.68;4.88;;;;;;;24.31;55.32;94518.59;5089797;28;20667;-82
2022/08/06 00:41:14;;;;;;;4.90;4.40;;;;;;;24.33;55.67;94527.03;5092747;28;20193;-82
2022/08/06 00:43:42;;;;;;;5.53;4.18;;;;;;;24.15;55.99;94497.38;5093140;28;20227;-81
2022/08/06 00:46:09;;;;;;;5.28;4.72;;;;;;;24.16;56.03;94503.38;5093639;28;20186;-82
2022/08/06 00:48:36;;;;;;;5.40;4.90;;;;;;;24.25;56.44;94517.69;5092941;28;20194;-83
2022/08/06 00:51:03;;;;;;;6.28;4.43;;;;;;;24.22;56.26;94513.75;5092547;28;20189;-81
2022/08/06 00:53:31;;;;;;;6.55;4.68;;;;;;;24.20;56.58;94522.81;5092833;28;20236;-81
2022/08/06 00:55:58;;;;;;;7.03;4.63;;;;;;;24.18;56.94;94522.22;5093284;28;20186;-82
2022/08/06 00:58:25;;;;;;;6.40;4.50;;;;;;;24.15;56.90;94522.69;5092985;28;20185;-83
2022/08/06 01:00:52;;;;;;;4.90;4.47;;;;;;;24.14;56.71;94526.34;5092458;28;20196;-82
2022/08/06 01:03:19;;;;;;;5.93;4.55;;;;;;;24.14;56.78;94531.56;5093298;28;20273;-82
2022/08/06 01:05:46;;;;;;;5.40;4.35;;;;;;;24.06;56.66;94511.78;5092178;28;20285;-79
2022/08/06 01:08:13;;;;;;;6.72;4.45;;;;;;;24.08;56.78;94524.63;5092397;28;20571;-82
2022/08/06 01:10:42;;;;;;;4.28;3.88;;;;;;;24.09;56.44;94526.19;5092964;28;20589;-81
2022/08/06 01:13:10;;;;;;;5.60;4.88;;;;;;;24.00;56.66;94510.84;5092243;28;20178;-81
2022/08/06 01:15:40;;;;;;;4.70;4.30;;;;;;;24.04;56.61;94519.03;5091778;28;20221;-82
2022/08/06 01:18:11;;;;;;;4.75;4.35;;;;;;;24.02;56.45;94516.66;5092401;28;20186;-81
2022/08/06 01:20:52;;;;;;;5.32;4.25;;;;;;;23.99;56.71;94518.91;5092266;28;20201;-81
2022/08/06 01:23:33;;;;;;;4.45;4.05;;;;;;;23.97;56.45;94510.53;5092408;28;20189;-82
2022/08/06 01:26:27;;;;;;;4.88;4.40;;;;;;;23.84;56.73;94498.47;5092220;28;20177;-81
2022/08/06 01:28:59;;;;;;;4.57;4.18;;;;;;;23.92;56.38;94513.81;5088306;28;20570;-81
2022/08/06 01:31:31;;;;;;;8.80;4.20;;;;;;;23.90;56.65;94505.41;5092255;28;20193;-80
2022/08/06 01:34:04;;;;;;;5.00;4.50;;;;;;;23.84;56.56;94506.31;5092219;28;20186;-81
2022/08/06 01:36:37;;;;;;;4.47;4.07;;;;;;;23.86;56.78;94516.50;5091834;28;20193;-82
2022/08/06 01:39:04;;;;;;;5.15;4.38;;;;;;;23.59;57.02;94471.69;5092102;28;20267;-82
2022/08/06 01:41:39;;;;;;;4.95;4.50;;;;;;;23.66;57.14;94488.06;5091712;28;20197;-80
2022/08/06 01:44:10;;;;;;;4.80;4.40;;;;;;;23.64;57.02;94488.28;5091411;28;20860;-81
2022/08/06 01:46:40;;;;;;;5.38;4.13;;;;;;;23.76;57.28;94515.25;5091779;28;20189;-82
2022/08/06 01:49:09;;;;;;;4.97;4.47;;;;;;;23.76;57.01;94509.22;5091298;28;20189;-81
2022/08/06 01:51:38;;;;;;;4.72;4.32;;;;;;;23.73;57.36;94517.50;5091648;28;20677;-83
2022/08/06 01:54:08;;;;;;;4.93;4.53;;;;;;;23.67;57.04;94503.53;5091478;28;20281;-81
2022/08/06 01:56:40;;;;;;;4.32;3.90;;;;;;;23.55;56.90;94492.22;5091655;28;20196;-81
2022/08/06 01:59:10;;;;;;;5.43;4.03;;;;;;;23.66;56.52;94503.75;5091831;28;20225;-81
2022/08/06 02:01:40;;;;;;;7.53;4.45;;;;;;;23.49;56.36;94482.69;5092584;28;20613;-80
2022/08/06 02:04:09;;;;;;;5.53;4.38;;;;;;;23.62;56.56;94499.94;5091311;28;20202;-82
2022/08/06 02:06:41;;;;;;;5.15;4.65;;;;;;;23.61;56.58;94496.56;5091515;28;20205;-81
2022/08/06 02:09:12;;;;;;;4.40;4.00;;;;;;;23.58;56.31;94497.03;5091401;28;20193;-81
2022/08/06 02:11:43;;;;;;;4.25;3.95;;;;;;;23.54;56.21;94493.25;5091665;28;20207;-82
2022/08/06 02:14:13;;;;;;;4.35;3.95;;;;;;;23.49;56.25;94493.13;5091189;28;20239;-81
2022/08/06 02:16:43;;;;;;;5.15;4.18;;;;;;;23.48;56.65;94484.47;5091716;28;20197;-81
2022/08/06 02:19:13;;;;;;;9.38;4.32;;;;;;;23.27;56.65;94457.09;5091906;28;20185;-82
2022/08/06 02:21:43;;;;;;;6.47;4.43;;;;;;;23.41;56.72;94486.41;5091690;28;20247;-82
2022/08/06 02:24:11;;;;;;;6.40;4.40;;;;;;;23.40;56.74;94481.38;5091828;28;20275;-81
2022/08/06 02:26:41;;;;;;;5.47;4.50;;;;;;;23.37;56.91;94476.63;5092026;28;20216;-80
2022/08/06 02:29:12;;;;;;;7.15;4.25;;;;;;;23.34;57.04;94480.47;5091281;28;20239;-79
2022/08/06 02:31:39;;;;;;;4.65;4.20;;;;;;;23.32;57.07;94481.72;5091336;28;20284;-81
2022/08/06 02:34:06;;;;;;;10.38;4.88;;;;;;;23.32;57.12;94481.72;5091377;28;20181;-81
2022/08/06 02:36:37;;;;;;;6.35;4.78;;;;;;;23.21;57.16;94470.22;5090797;28;20200;-81
2022/08/06 02:39:10;;;;;;;6.13;4.47;;;;;;;23.12;57.35;94461.91;5091141;28;20193;-82
2022/08/06 02:41:41;;;;;;;4.88;4.40;;;;;;;23.24;57.61;94485.44;5091163;28;20201;-81
2022/08/06 02:44:16;;;;;;;5.45;4.47;;;;;;;23.12;57.39;94476.75;5091018;28;20306;-82
2022/08/06 02:46:48;;;;;;;8.63;4.43;;;;;;;23.12;57.76;94474.94;5090873;28;20193;-81
2022/08/06 02:49:19;;;;;;;5.63;4.55;;;;;;;23.17;57.82;94489.94;5091907;28;20190;-79
2022/08/06 02:51:52;;;;;;;6.18;4.35;;;;;;;23.10;57.88;94482.22;5091671;28;20249;-82
2022/08/06 02:54:23;;;;;;;5.05;4.55;;;;;;;23.01;57.84;94478.28;5090934;28;20194;-82
2022/08/06 02:56:55;;;;;;;5.13;4.60;;;;;;;23.06;57.92;94481.06;5091203;28;20205;-81
2022/08/06 02:59:29;;;;;;;6.25;4.50;;;;;;;23.08;58.21;94492.06;5090655;28;20192;-82
2022/08/06 03:02:02;;;;;;;5.03;4.28;;;;;;;22.99;58.11;94485.53;5090609;28;20200;-82
2022/08/06 03:04:33;;;;;;;5.28;4.57;;;;;;;23.02;58.41;94504.16;5090220;28;20225;-81
2022/08/06 03:07:05;;;;;;;8.15;5.60;;;;;;;22.98;58.55;94497.78;5090978;28;20189;-81
2022/08/06 03:09:32;;;;;;;4.93;4.28;;;;;;;22.96;58.88;94497.19;5090584;28;20669;-81
2022/08/06 03:12:00;;;;;;;5.72;5.15;;;;;;;22.95;58.95;94500.03;5090681;28;20574;-83
2022/08/06 03:14:31;;;;;;;6.60;4.78;;;;;;;22.92;58.98;94503.88;5090046;28;20225;-80
2022/08/06 03:16:59;;;;;;;5.95;4.65;;;;;;;22.90;59.01;94508.53;5090302;28;20828;-81
2022/08/06 03:19:27;;;;;;;5.40;4.65;;;;;;;22.89;59.08;94504.31;5090360;28;20181;-82
2022/08/06 03:21:55;;;;;;;7.43;5.00;;;;;;;22.79;59.28;94493.56;5090602;28;20223;-82
2022/08/06 03:24:24;;;;;;;4.80;4.38;;;;;;;22.78;59.47;94500.59;5089950;28;20225;-82
2022/08/06 03:26:53;;;;;;;4.72;4.32;;;;;;;22.83;59.59;94518.19;5090207;28;20291;-81
2022/08/06 03:29:20;;;;;;;5.80;4.68;;;;;;;22.80;59.84;94513.44;5090226;28;20185;-81
2022/08/06 03:31:49;;;;;;;5.82;5.28;;;;;;;22.78;59.88;94505.00;5090023;28;20185;-81
2022/08/06 03:34:16;;;;;;;5.85;5.10;;;;;;;22.77;59.93;94500.81;5090360;28;20197;-83
2022/08/06 03:36:44;;;;;;;6.15;5.57;;;;;;;22.59;60.26;94475.56;5089868;28;20688;-81
2022/08/06 03:39:14;;;;;;;6.25;4.95;;;;;;;22.71;60.07;94494.69;5090263;28;20190;-81
2022/08/06 03:41:41;;;;;;;6.40;5.07;;;;;;;22.70;60.22;94500.09;5090053;28;20181;-81
2022/08/06 03:44:08;;;;;;;5.68;5.00;;;;;;;22.69;60.22;94501.91;5090028;28;20201;-84
2022/08/06 03:46:39;;;;;;;5.68;5.18;;;;;;;22.67;60.54;94498.72;5089688;28;20230;-81
2022/08/06 03:49:13;;;;;;;6.22;5.32;;;;;;;22.60;60.50;94505.00;5089344;28;20637;-80
2022/08/06 03:51:41;;;;;;;7.82;5.53;;;;;;;22.64;60.60;94506.97;5089048;28;20194;-79
2022/08/06 03:54:10;;;;;;;4.78;4.35;;;;;;;22.59;60.65;94498.22;5089326;28;20198;-82
2022/08/06 03:56:40;;;;;;;6.40;5.72;;;;;;;22.63;60.85;94505.38;5089572;28;20219;-81
2022/08/06 03:59:08;;;;;;;5.57;4.88;;;;;;;22.64;61.23;94514.00;5089500;28;20193;-80
2022/08/06 04:01:38;;;;;;;5.72;5.22;;;;;;;22.62;61.33;94510.78;5089320;28;20182;-80
2022/08/06 04:04:07;;;;;;;5.90;5.32;;;;;;;22.59;61.42;94506.84;5089545;28;20194;-79
2022/08/06 04:06:35;;;;;;;6.20;5.53;;;;;;;22.62;61.16;94516.00;5089765;28;20278;-84
2022/08/06 04:09:05;;;;;;;7.18;5.40;;;;;;;22.57;61.30;94508.84;5089894;28;20197;-80
2022/08/06 04:11:33;;;;;;;9.23;5.60;;;;;;;22.63;61.43;94515.81;5089853;28;20198;-83
2022/08/06 04:14:01;;;;;;;8.55;5.35;;;;;;;22.64;61.54;94517.41;5090587;28;20687;-82
2022/08/06 04:16:28;;;;;;;8.63;6.35;;;;;;;22.64;61.60;94520.00;5093115;28;20746;-81
2022/08/06 04:18:56;;;;;;;8.63;5.90;;;;;;;22.66;61.50;94523.19;5093143;28;20193;-82
2022/08/06 04:21:26;;;;;;;8.27;5.75;;;;;;;22.67;61.61;94519.59;5092905;28;20675;-83
2022/08/06 04:23:53;;;;;;;9.48;5.85;;;;;;;22.68;61.67;94522.97;5093306;28;20204;-81
2022/08/06 04:26:23;;;;;;;12.70;5.32;;;;;;;22.68;61.63;94525.59;5092950;28;20209;-82
2022/08/06 04:28:53;;;;;;;12.13;5.32;;;;;;;22.70;61.75;94528.75;5093314;28;20189;-81
2022/08/06 04:31:21;;;;;;;9.40;5.18;;;;;;;22.57;61.68;94510.66;5093012;28;20227;-81
2022/08/06 04:33:49;;;;;;;9.98;5.20;;;;;;;22.75;61.48;94528.91;5093168;28;20185;-80
2022/08/06 04:36:16;;;;;;;11.85;5.75;;;;;;;22.76;61.61;94533.94;5092984;28;20198;-80
2022/08/06 04:38:46;;;;;;;8.43;5.20;;;;;;;22.82;61.88;94537.47;5093185;28;20197;-80
2022/08/06 04:41:14;;;;;;;8.85;5.00;;;;;;;22.83;61.97;94533.84;5092868;28;20194;-81
2022/08/06 04:43:41;;;;;;;7.82;5.63;;;;;;;22.85;61.93;94537.03;5094088;28;20567;-82
2022/08/06 04:46:09;;;;;;;9.00;5.40;;;;;;;22.88;62.04;94536.59;5093246;28;20225;-82
2022/08/06 04:48:37;;;;;;;8.55;5.50;;;;;;;22.93;61.92;94544.59;5092643;28;20191;-82
2022/08/06 04:51:04;;;;;;;8.27;5.68;;;;;;;22.90;59.98;94539.81;5092434;28;20544;-81
2022/08/06 04:53:37;;;;;;;7.43;5.82;;;;;;;22.93;59.83;94543.81;5092512;28;20606;-83
2022/08/06 04:56:06;;;;;;;8.68;5.75;;;;;;;22.97;59.93;94534.50;5092417;28;20251;-81
2022/08/06 04:58:34;;;;;;;7.47;5.47;;;;;;;23.10;60.29;94550.03;5092473;28;20189;-81
2022/08/06 05:01:02;;;;;;;5.50;4.95;;;;;;;23.18;60.54;94546.31;5092338;28;20197;-82
2022/08/06 05:03:29;;;;;;;6.30;5.53;;;;;;;23.18;60.77;94528.06;5092123;28;20197;-82
2022/08/06 05:06:02;;;;;;;6.85;4.88;;;;;;;23.41;60.73;94556.09;5092617;28;20225;-81
2022/08/06 05:08:31;;;;;;;6.13;5.18;;;;;;;23.54;60.08;94546.25;5092468;28;20279;-80
2022/08/06 05:11:03;;;;;;;5.72;4.65;;;;;;;23.67;59.82;94554.97;5092491;28;20641;-82
2022/08/06 05:13:36;;;;;;;5.78;4.80;;;;;;;23.83;58.26;94551.69;5092107;28;20208;-84
2022/08/06 05:16:07;;;;;;;7.88;5.25;;;;;;;23.95;57.89;94549.91;5091989;28;20225;-82
2022/08/06 05:18:37;;;;;;;11.48;5.43;;;;;;;23.98;56.86;94552.09;5092163;28;20212;-81
2022/08/06 05:21:06;;;;;;;12.45;5.20;;;;;;;24.04;56.74;94548.56;5092168;28;20201;-82
2022/08/06 05:23:38;;;;;;;5.95;4.95;;;;;;;24.19;56.17;94550.78;5091739;28;20196;-80
2022/08/06 05:26:05;;;;;;;5.53;4.82;;;;;;;24.32;55.36;94546.34;5090926;28;20222;-82
2022/08/06 05:28:33;;;;;;;6.32;4.85;;;;;;;24.47;54.38;94551.94;5091802;28;20185;-83
2022/08/06 05:31:00;;;;;;;11.23;5.45;;;;;;;24.58;54.68;94552.97;5092133;28;20193;-80
2022/08/06 05:33:28;;;;;;;7.20;5.15;;;;;;;24.75;54.02;94553.88;5091947;28;20182;-81
2022/08/06 05:35:55;;;;;;;7.97;5.55;;;;;;;24.82;53.78;94558.97;5091884;28;20189;-80
2022/08/06 05:38:23;;;;;;;5.20;4.80;;;;;;;24.58;53.52;94532.84;5091511;28;20289;-81
2022/08/06 05:40:50;;;;;;;7.95;5.00;;;;;;;24.82;53.42;94554.53;5091432;28;20201;-82
2022/08/06 05:43:17;;;;;;;6.15;5.13;;;;;;;24.75;53.08;94559.13;5091638;28;20194;-84
2022/08/06 05:45:47;;;;;;;6.28;5.60;;;;;;;24.82;52.88;94561.59;5091619;28;20708;-83
2022/08/06 05:48:16;;;;;;;6.18;5.55;;;;;;;25.04;52.64;94562.56;5091848;28;20538;-83
2022/08/06 05:50:47;;;;;;;7.57;5.95;;;;;;;25.05;52.74;94539.84;5092555;28;20178;-83
2022/08/06 05:53:20;;;;;;;6.50;5.38;;;;;;;25.12;52.48;94551.78;5091476;28;20200;-84
2022/08/06 05:55:52;;;;;;;5.93;5.43;;;;;;;24.81;52.03;94505.88;5091662;28;20182;-87
2022/08/06 05:58:26;;;;;;;8.00;5.90;;;;;;;25.27;52.27;94548.69;5091501;28;20228;-84
2022/08/06 06:00:55;;;;;;;8.05;5.50;;;;;;;25.50;53.06;94545.19;5091427;28;20195;-82
2022/08/06 06:03:23;;;;;;;8.82;5.85;;;;;;;25.62;53.20;94551.19;5091101;28;20190;-83
2022/08/06 06:05:51;;;;;;;7.80;5.65;;;;;;;25.58;52.65;94533.56;5090758;28;20310;-82
2022/08/06 06:08:19;;;;;;;5.50;5.00;;;;;;;25.81;52.84;94551.78;5076420;28;20190;-83
2022/08/06 06:10:47;;;;;;;6.75;5.60;;;;;;;25.94;52.17;94551.50;5071042;28;20266;-82
2022/08/06 06:13:16;;;;;;;6.45;5.80;;;;;;;26.04;51.78;94545.66;5070619;28;20194;-81
2022/08/06 06:15:48;;;;;;;6.22;5.50;;;;;;;26.15;50.65;94550.00;5070435;28;20342;-82
2022/08/06 06:18:28;;;;;;;7.03;5.40;;;;;;;26.21;50.84;94546.44;5070739;28;20194;-81
2022/08/06 06:21:04;;;;;;;10.10;6.53;;;;;;;26.39;50.69;94549.84;5068598;28;20186;-83
2022/08/06 06:23:37;;;;;;;7.35;5.63;;;;;;;26.48;49.64;94545.81;5068169;28;20217;-84
2022/08/06 06:26:15;;;;;;;6.32;5.72;;;;;;;26.58;49.22;94534.69;5068249;28;20231;-81
2022/08/06 06:28:52;;;;;;;11.70;5.50;;;;;;;26.61;49.51;94532.38;5068319;28;20298;-82
2022/08/06 06:31:29;;;;;;;11.77;6.20;;;;;;;26.72;49.17;94539.31;5068072;28;20186;-84
2022/08/06 06:34:05;;;;;;;6.93;5.57;;;;;;;26.69;48.91;94541.66;5068071;28;20301;-83
2022/08/06 06:36:37;;;;;;;7.03;5.07;;;;;;;26.85;48.88;94547.91;5068488;28;20194;-81
2022/08/06 06:39:08;;;;;;;9.27;5.45;;;;;;;26.82;48.67;94520.31;5067476;28;20275;-83
2022/08/06 06:41:44;;;;;;;6.22;5.63;;;;;;;27.07;48.84;94540.81;5071275;28;20186;-81
2022/08/06 06:44:18;;;;;;;9.25;5.32;;;;;;;27.13;48.21;94534.63;5080365;28;20207;-82
2022/08/06 06:46:52;;;;;;;9.45;5.90;;;;;;;27.30;48.44;94533.78;5072937;28;20213;-82
2022/08/06 06:49:26;;;;;;;7.00;5.40;;;;;;;27.32;48.55;94518.56;5076255;28;20193;-85
2022/08/06 06:51:57;;;;;;;7.20;5.75;;;;;;;27.47;47.94;94516.13;5079111;28;20194;-84
2022/08/06 06:54:28;;;;;;;6.53;5.50;;;;;;;27.67;47.35;94516.28;5079696;28;20575;-84
2022/08/06 06:56:57;;;;;;;6.93;5.65;;;;;;;27.75;46.68;94528.22;5075279;28;20182;-82
2022/08/06 06:59:30;;;;;;;7.13;5.20;;;;;;;27.77;46.89;94518.28;5078304;28;20208;-82
2022/08/06 07:01:59;;;;;;;5.38;4.88;;;;;;;28.01;46.79;94527.41;5077890;28;20181;-82
2022/08/06 07:04:29;;;;;;;7.47;5.57;;;;;;;28.09;46.36;94504.34;5078129;28;20191;-82
2022/08/06 07:06:58;;;;;;;6.40;5.80;;;;;;;28.21;45.40;94518.09;5075074;28;20226;-83
2022/08/06 07:09:29;;;;;;;6.60;5.18;;;;;;;28.40;46.53;94518.53;5089965;28;20629;-80
2022/08/06 07:11:59;;;;;;;7.03;5.03;;;;;;;28.23;45.93;94489.69;5089899;28;20194;-82
2022/08/06 07:14:28;;;;;;;7.53;5.43;;;;;;;28.54;45.84;94522.31;5089887;28;20228;-81
2022/08/06 07:16:58;;;;;;;5.70;4.70;;;;;;;28.75;45.88;94517.94;5090282;28;20193;-82
2022/08/06 07:19:28;;;;;;;7.95;5.55;;;;;;;28.97;45.60;94516.00;5090308;28;20212;-80
2022/08/06 07:21:56;;;;;;;6.63;4.90;;;;;;;29.15;45.92;94516.59;5090111;28;20196;-80
2022/08/06 07:24:25;;;;;;;6.68;4.97;;;;;;;29.34;44.25;94512.41;5089792;28;20177;-81
2022/08/06 07:26:56;;;;;;;7.22;4.90;;;;;;;29.56;44.38;94514.09;5078305;28;20218;-82
2022/08/06 07:29:26;;;;;;;5.70;5.13;;;;;;;29.71;43.62;94511.50;5070347;28;20191;-82
2022/08/06 07:31:55;;;;;;;6.80;5.28;;;;;;;29.64;42.75;94488.00;5071656;28;20190;-83
2022/08/06 07:34:23;;;;;;;7.47;5.10;;;;;;;29.86;43.37;94510.72;5069297;28;20192;-81
2022/08/06 07:36:53;;;;;;;8.05;5.10;;;;;;;29.96;42.38;94508.06;5069879;28;20816;-81
2022/08/06 07:39:24;;;;;;;6.88;5.38;;;;;;;30.09;42.16;94499.63;5069749;28;20193;-81
2022/08/06 07:41:53;;;;;;;8.75;5.40;;;;;;;30.08;42.42;94492.78;5069555;28;20203;-81
2022/08/06 07:44:22;;;;;;;5.70;4.60;;;;;;;30.22;42.17;94493.06;5070114;28;20561;-81
2022/08/06 07:46:54;;;;;;;7.22;5.28;;;;;;;30.31;42.57;94494.13;5070463;28;20758;-81
2022/08/06 07:49:25;;;;;;;10.55;5.40;;;;;;;30.41;41.75;94488.81;5071292;28;20186;-82
2022/08/06 07:51:57;;;;;;;6.15;5.05;;;;;;;30.32;42.01;94492.28;5073411;28;20733;-81
2022/08/06 07:54:29;;;;;;;6.20;5.60;;;;;;;29.90;41.64;94437.94;5073189;28;20190;-81
2022/08/06 07:56:57;;;;;;;9.18;5.32;;;;;;;30.45;41.21;94497.00;5073735;28;20210;-81
2022/08/06 07:59:25;;;;;;;6.82;4.85;;;;;;;30.46;41.55;94495.94;5055124;28;20186;-81
2022/08/06 08:01:52;;;;;;;7.28;5.25;;;;;;;30.55;41.64;94494.34;5073188;28;20208;-80
2022/08/06 08:07:08;;;;;;;5.85;5.22;;;;;;;30.81;41.44;94487.16;5073096;28;20308;-80
2022/08/06 08:09:36;;;;;;;9.35;5.30;;;;;;;30.93;40.89;94485.00;5073232;28;20183;-80
2022/08/06 08:12:06;;;;;;;9.05;5.22;;;;;;;31.12;40.87;94494.97;5072882;28;20202;-80
2022/08/06 08:14:34;;;;;;;8.15;5.05;;;;;;;31.17;40.10;94492.28;5072550;28;20225;-81
2022/08/06 08:17:01;;;;;;;6.35;5.05;;;;;;;31.32;40.55;94494.13;5072937;28;20243;-81
2022/08/06 08:19:32;;;;;;;4.90;4.40;;;;;;;31.31;40.24;94458.97;5072359;28;20194;-81
2022/08/06 08:21:59;;;;;;;5.13;4.63;;;;;;;31.61;39.77;94495.00;5072593;28;20190;-80
2022/08/06 08:24:31;;;;;;;5.35;4.40;;;;;;;31.78;38.71;94491.19;5072687;28;20662;-80
2022/08/06 08:26:58;;;;;;;5.28;4.40;;;;;;;31.78;39.26;94464.72;5073052;28;20317;-82
2022/08/06 08:29:25;;;;;;;7.00;4.43;;;;;;;31.96;38.35;94472.81;5072500;28;20190;-82
2022/08/06 08:31:52;;;;;;;6.30;3.85;;;;;;;32.19;38.62;94487.19;5073079;28;20190;-81
2022/08/06 08:34:19;;;;;;;6.22;4.60;;;;;;;32.32;38.04;94487.59;5072592;28;20189;-81
2022/08/06 08:36:45;;;;;;;5.20;4.25;;;;;;;32.42;37.84;94485.66;5072649;28;20565;-81
2022/08/06 08:39:14;;;;;;;4.40;3.83;;;;;;;32.44;37.09;94475.59;5072354;28;20197;-82
2022/08/06 08:41:46;;;;;;;6.47;4.45;;;;;;;32.63;36.97;94485.47;5072370;28;20191;-82
2022/08/06 08:44:13;;;;;;;4.78;4.32;;;;;;;32.69;37.36;94485.16;5072491;28;20193;-81
2022/08/06 08:46:42;;;;;;;5.60;4.43;;;;;;;32.78;36.90;94481.88;5072299;28;20228;-81
2022/08/06 08:49:17;;;;;;;8.38;4.18;;;;;;;32.85;36.45;94469.84;5072580;28;20198;-82
2022/08/06 08:51:45;;;;;;;4.78;4.38;;;;;;;32.90;36.89;94467.16;5072699;28;20205;-82
2022/08/06 08:54:16;;;;;;;8.77;4.97;;;;;;;33.08;36.34;94478.91;5072973;28;20189;-82
2022/08/06 08:56:45;;;;;;;4.25;3.67;;;;;;;33.13;36.21;94486.00;5072558;28;20182;-81
2022/08/06 08:59:13;;;;;;;5.18;3.92;;;;;;;33.19;35.95;94480.31;5073062;28;20206;-82
2022/08/06 09:01:41;;;;;;;4.35;3.75;;;;;;;33.21;35.38;94467.59;5071369;28;20240;-82
2022/08/06 09:04:08;;;;;;;5.63;3.88;;;;;;;33.33;35.92;94476.97;5071982;28;20270;-82
2022/08/06 09:06:38;;;;;;;6.00;3.78;;;;;;;33.38;34.60;94474.28;5072141;28;20681;-82
2022/08/06 09:09:06;;;;;;;6.72;3.72;;;;;;;33.44;35.36;94478.44;5071865;28;20209;-81
2022/08/06 09:11:34;;;;;;;5.20;3.50;;;;;;;33.33;35.05;94456.53;5072256;28;20676;-83
2022/08/06 09:14:03;;;;;;;3.92;3.63;;;;;;;33.47;35.13;94472.59;5072176;28;20190;-82
2022/08/06 09:16:32;;;;;;;3.85;3.55;;;;;;;33.43;35.30;94474.19;5072102;28;20198;-81
2022/08/06 09:18:59;;;;;;;7.00;3.63;;;;;;;33.39;35.14;94466.03;5071900;28;20190;-82
2022/08/06 09:21:26;;;;;;;5.40;4.00;;;;;;;33.49;35.65;94461.69;5072112;28;20186;-82
2022/08/06 09:23:53;;;;;;;4.28;3.63;;;;;;;33.38;34.90;94467.09;5071883;28;20198;-82
2022/08/06 09:26:20;;;;;;;3.85;3.55;;;;;;;33.31;34.55;94469.31;5071566;28;20218;-82
2022/08/06 09:28:47;;;;;;;3.78;3.47;;;;;;;33.30;34.61;94459.00;5071748;28;20183;-81
2022/08/06 09:31:17;;;;;;;4.93;3.40;;;;;;;33.38;35.69;94458.38;5071864;28;20194;-82
2022/08/06 09:33:55;;;;;;;3.95;3.55;;;;;;;33.43;35.12;94461.72;5072377;28;20209;-82
2022/08/06 09:36:22;;;;;;;3.40;3.20;;;;;;;33.43;35.49;94453.78;5071090;28;20198;-82
2022/08/06 09:38:55;;;;;;;4.10;3.70;;;;;;;33.41;33.92;94466.50;5071804;28;20194;-82
2022/08/06 09:41:23;;;;;;;4.70;3.75;;;;;;;33.35;34.48;94453.63;5070850;28;20209;-82
2022/08/06 09:43:52;;;;;;;3.80;3.50;;;;;;;33.30;34.79;94461.66;5071162;28;20194;-81
2022/08/06 09:46:37;;;;;;;3.85;3.53;;;;;;;33.04;34.73;94453.25;5071019;28;20218;-82
2022/08/06 09:49:04;;;;;;;3.97;3.67;;;;;;;33.12;35.29;94471.16;5071293;28;20854;-81
2022/08/06 09:51:34;;;;;;;4.03;3.17;;;;;;;33.02;34.51;94458.03;5070964;28;20190;-81
2022/08/06 09:54:04;;;;;;;3.85;3.30;;;;;;;32.96;35.23;94455.44;5070883;28;20229;-81
2022/08/06 09:56:32;;;;;;;5.03;3.50;;;;;;;32.96;34.96;94442.19;5070804;28;20634;-81
2022/08/06 09:59:00;;;;;;;4.00;3.60;;;;;;;32.95;35.19;94430.03;5070899;28;20186;-80
2022/08/06 10:01:29;;;;;;;3.78;3.42;;;;;;;32.98;34.81;94449.84;5070812;28;20194;-80
2022/08/06 10:03:58;;;;;;;4.57;3.40;;;;;;;33.09;34.46;94442.56;5070903;28;20187;-80
2022/08/06 10:06:25;;;;;;;3.30;3.05;;;;;;;33.14;34.73;94447.81;5070918;28;20229;-80
2022/08/06 10:09:07;;;;;;;4.53;3.17;;;;;;;33.21;34.61;94449.03;5070549;28;20198;-80
2022/08/06 10:11:36;;;;;;;4.97;3.58;;;;;;;33.25;34.87;94449.25;5070186;28;20182;-82
2022/08/06 10:14:03;;;;;;;3.90;3.50;;;;;;;33.28;34.69;94448.66;5070449;28;20194;-79
2022/08/06 10:16:34;;;;;;;4.25;3.50;;;;;;;33.29;35.00;94447.63;5070777;28;20214;-80
2022/08/06 10:19:06;;;;;;;4.03;3.65;;;;;;;33.24;34.84;94444.22;5071178;28;20687;-82
2022/08/06 10:21:36;;;;;;;4.05;3.70;;;;;;;33.13;35.00;94422.38;5070546;28;20189;-83
2022/08/06 10:24:05;;;;;;;3.70;3.40;;;;;;;33.37;34.35;94443.50;5053200;28;20198;-82
2022/08/06 10:26:34;;;;;;;3.40;3.10;;;;;;;33.38;34.41;94434.50;5070026;28;20228;-82
2022/08/06 10:29:04;;;;;;;4.38;3.50;;;;;;;33.28;34.65;94439.94;5070990;28;20569;-82
2022/08/06 10:31:36;;;;;;;5.57;3.20;;;;;;;33.33;34.39;94442.50;5070887;28;20186;-82
2022/08/06 10:34:10;;;;;;;4.97;3.80;;;;;;;33.36;34.25;94436.63;5070423;28;20190;-82
2022/08/06 10:36:44;;;;;;;4.30;3.70;;;;;;;33.19;34.51;94434.47;5070212;28;20197;-82
2022/08/06 10:39:11;;;;;;;4.82;3.92;;;;;;;33.23;34.56;94432.84;5070305;28;20632;-82
2022/08/06 10:41:40;;;;;;;3.97;3.67;;;;;;;33.07;34.56;94413.69;5070581;28;20182;-81
2022/08/06 10:44:08;;;;;;;5.03;3.75;;;;;;;33.17;34.76;94429.47;5070723;28;20187;-81
2022/08/06 10:46:36;;;;;;;3.55;3.22;;;;;;;33.19;35.21;94429.19;5070363;28;20217;-79
2022/08/06 10:49:03;;;;;;;4.38;3.55;;;;;;;33.24;35.09;94428.31;5070177;28;20190;-81
2022/08/06 10:51:31;;;;;;;4.85;3.08;;;;;;;33.24;35.00;94412.41;5069900;28;20183;-81
2022/08/06 10:53:58;;;;;;;3.17;2.97;;;;;;;33.26;34.99;94423.53;5070454;28;20280;-83
2022/08/06 10:56:35;;;;;;;4.28;3.65;;;;;;;33.28;34.30;94426.69;5076749;28;20182;-92
2022/08/06 10:59:03;;;;;;;3.45;3.15;;;;;;;33.19;34.57;94413.28;5101308;28;20657;-93
2022/08/06 11:01:38;;;;;;;4.10;3.70;;;;;;;33.13;34.52;94423.16;5102270;28;20188;-95
2022/08/06 11:04:36;;;;;;;4.95;3.00;;;;;;;33.16;34.26;94427.09;5103881;28;20250;-88
2022/08/06 11:07:52;;;;;;;4.20;3.05;;;;;;;33.16;34.12;94424.44;5099903;28;20723;-95
2022/08/06 11:10:43;;;;;;;4.80;3.80;;;;;;;33.13;33.81;94417.09;5101158;28;20229;-96
2022/08/06 11:13:32;;;;;;;5.18;4.03;;;;;;;32.99;34.14;94411.72;5100965;28;20254;-94
2022/08/06 11:16:00;;;;;;;3.75;3.45;;;;;;;32.99;34.42;94414.34;5100281;28;20313;-96
2022/08/06 11:18:30;;;;;;;3.65;3.33;;;;;;;32.91;34.47;94414.97;5102214;28;20193;-93
2022/08/06 11:21:01;;;;;;;3.58;3.33;;;;;;;32.91;33.94;94407.00;5102631;28;20204;-92
2022/08/06 11:23:41;;;;;;;3.83;3.53;;;;;;;32.81;33.98;94410.56;5103215;28;20649;-95
2022/08/06 11:26:12;;;;;;;3.90;3.50;;;;;;;32.69;34.30;94411.00;5100966;28;20185;-96
2022/08/06 11:29:02;;;;;;;5.47;3.95;;;;;;;32.72;34.73;94421.00;5088887;28;20286;-79
2022/08/06 11:31:35;;;;;;;4.95;3.20;;;;;;;32.70;34.61;94399.31;5114033;28;20205;-88
2022/08/06 11:34:06;;;;;;;5.32;3.20;;;;;;;32.76;34.96;94397.38;5115116;28;20169;-94
2022/08/06 11:36:59;;;;;;;3.85;3.50;;;;;;;32.74;34.47;94418.06;5114639;28;20188;-89
2022/08/06 11:39:29;;;;;;;4.32;3.95;;;;;;;32.55;34.58;94415.38;5114188;28;20220;-81
2022/08/06 11:41:59;;;;;;;3.95;3.15;;;;;;;32.47;34.46;94403.56;5105969;28;20285;-93
2022/08/06 11:44:29;;;;;;;3.42;3.20;;;;;;;32.62;33.72;94409.75;5104725;28;20188;-94
2022/08/06 11:47:19;;;;;;;3.90;3.60;;;;;;;32.66;34.67;94400.16;5106893;28;20228;-85
2022/08/06 11:49:50;;;;;;;3.33;3.13;;;;;;;32.67;33.84;94401.72;5105568;28;20189;-95
2022/08/06 11:52:40;;;;;;;4.47;3.50;;;;;;;32.74;33.79;94399.53;5109673;28;20196;-95